Time;durP1;ratioP1;P1;durP2;ratioP2;P2;SDS_P1;SDS_P2;PMS_P1;PMS_P2;Temp;Humidity;BMP_temperature;BMP_pressure;BME280_temperature;BME280_humidity;BME280_pressure;Samples;Min_cycle;Max_cycle;Signal;HPM_P1;HPM_P2
2022/01/14 00:00:26;;;;;;;;;;;;;;;20.50;47.13;102628.50;5033872;28;5337;-65
2022/01/14 00:02:52;;;;;;;;;;;;;;;20.53;47.29;102620.75;5034711;28;4543;-64
2022/01/14 00:05:19;;;;;;;;;;;;;;;20.57;47.13;102620.31;5029917;28;4169;-64
2022/01/14 00:07:45;;;;;;;;;;;;;;;20.56;47.42;102624.53;5034730;28;4125;-64
2022/01/14 00:10:12;;;;;;;;;;;;;;;20.53;47.20;102620.00;5033090;28;5252;-64
2022/01/14 00:12:46;;;;;;;;;;;;;;;20.55;47.15;102618.03;5031306;28;4329;-64
2022/01/14 00:15:35;;;;;;;;;;;;;;;20.50;47.12;102611.22;5034966;28;5272;-64
2022/01/14 00:17:59;;;;;;;;;;;;;;;20.50;47.38;102611.22;5025150;28;4252;-64
2022/01/14 00:20:26;;;;;;;;;;;;;;;20.44;47.40;102610.78;5032201;28;4071;-64
2022/01/14 00:22:52;;;;;;;;;;;;;;;20.45;47.38;102620.91;5031803;28;4253;-64
2022/01/14 00:33:34;;;;;;;;;;;;;;;20.47;47.29;102606.66;5030572;28;4298;-64
2022/01/14 00:36:00;;;;;;;;;;;;;;;20.44;47.29;102607.91;5032756;28;4218;-64
2022/01/14 00:38:26;;;;;;;;;;;;;;;20.55;47.13;102612.28;5034019;28;4311;-64
2022/01/14 00:40:53;;;;;;;;;;;;;;;20.53;47.14;102605.63;5034785;28;5385;-64
2022/01/14 00:43:19;;;;;;;;;;;;;;;20.51;47.25;102606.97;5029161;28;4227;-64
2022/01/14 00:45:46;;;;;;;;;;;;;;;20.47;47.26;102600.91;5032306;28;4220;-64
2022/01/14 00:48:12;;;;;;;;;;;;;;;20.53;47.20;102605.63;5028671;28;4224;-64
2022/01/14 00:50:44;;;;;;;;;;;;;;;20.56;47.14;102605.19;5014036;28;4279;-64
2022/01/14 00:53:11;;;;;;;;;;;;;;;20.54;47.24;102599.25;5029350;28;4077;-64
2022/01/14 00:55:48;;;;;;;;;;;;;;;20.47;47.29;102609.53;5033317;28;4208;-64
2022/01/14 01:01:00;;;;;;;;;;;;;;;20.54;47.12;102598.50;5027380;28;4097;-64
2022/01/14 01:03:28;;;;;;;;;;;;;;;20.55;46.98;102602.88;5029783;28;4238;-64
2022/01/14 01:05:54;;;;;;;;;;;;;;;20.56;46.91;102613.81;5033250;28;3983;-64
2022/01/14 01:08:24;;;;;;;;;;;;;;;20.49;47.13;102609.69;5031054;28;4257;-64
2022/01/14 01:10:51;;;;;;;;;;;;;;;20.45;47.15;102600.75;5030464;28;4163;-64
2022/01/14 01:13:23;;;;;;;;;;;;;;;20.50;47.08;102599.72;5030646;28;4558;-64
2022/01/14 01:15:49;;;;;;;;;;;;;;;20.50;46.92;102596.84;5028455;28;5317;-64
2022/01/14 01:18:17;;;;;;;;;;;;;;;20.46;47.18;102605.16;5029820;28;4071;-64
2022/01/14 01:20:43;;;;;;;;;;;;;;;20.45;47.14;102609.38;5031757;28;4228;-64
2022/01/14 01:23:09;;;;;;;;;;;;;;;20.47;47.10;102600.91;5031449;28;5197;-64
2022/01/14 01:25:54;;;;;;;;;;;;;;;20.50;47.07;102591.09;5020198;28;4170;-64
2022/01/14 01:28:21;;;;;;;;;;;;;;;20.56;46.70;102587.91;5029726;28;4103;-64
2022/01/14 01:31:02;;;;;;;;;;;;;;;20.51;46.97;102589.69;5031421;28;5403;-64
2022/01/14 01:33:29;;;;;;;;;;;;;;;20.48;47.12;102596.69;5031925;28;4100;-64
2022/01/14 01:35:56;;;;;;;;;;;;;;;20.48;46.89;102595.94;5032673;28;4322;-64
2022/01/14 01:38:22;;;;;;;;;;;;;;;20.50;46.83;102596.84;5032400;28;5841;-64
2022/01/14 01:40:49;;;;;;;;;;;;;;;20.51;46.90;102598.34;5031973;28;5412;-64
2022/01/14 01:43:15;;;;;;;;;;;;;;;20.54;46.98;102593.47;5032419;28;5299;-64
2022/01/14 01:45:44;;;;;;;;;;;;;;;20.49;46.95;102586.69;5031936;28;4242;-64
2022/01/14 01:48:11;;;;;;;;;;;;;;;20.48;46.67;102579.41;5029186;28;4055;-64
2022/01/14 01:50:37;;;;;;;;;;;;;;;20.45;47.14;102583.50;5029766;28;4899;-64
2022/01/14 01:53:04;;;;;;;;;;;;;;;20.49;47.12;102574.41;5032839;28;5303;-64
2022/01/14 01:55:30;;;;;;;;;;;;;;;20.51;46.89;102566.69;5031318;28;4179;-65
2022/01/14 01:57:57;;;;;;;;;;;;;;;20.49;47.00;102563.66;5028254;28;4618;-64
2022/01/14 02:00:24;;;;;;;;;;;;;;;20.50;46.78;102570.94;5032380;28;4003;-64
2022/01/14 02:02:50;;;;;;;;;;;;;;;20.47;47.11;102566.38;5032507;28;4369;-64
2022/01/14 02:05:16;;;;;;;;;;;;;;;20.50;47.07;102565.19;5027622;28;4233;-64
2022/01/14 02:07:43;;;;;;;;;;;;;;;20.60;46.86;102568.06;5031195;28;5522;-64
2022/01/14 02:10:10;;;;;;;;;;;;;;;20.41;47.13;102586.09;5035131;28;5228;-64
2022/01/14 02:12:45;;;;;;;;;;;;;;;20.48;46.97;102579.41;5030874;28;4153;-63
2022/01/14 02:15:27;;;;;;;;;;;;;;;20.48;47.08;102573.66;5030078;28;5312;-64
2022/01/14 02:23:07;;;;;;;;;;;;;;;20.41;47.06;102568.81;5032755;28;4297;-63
2022/01/14 02:25:33;;;;;;;;;;;;;;;20.46;46.87;102567.75;5033776;28;5529;-64
2022/01/14 02:28:05;;;;;;;;;;;;;;;20.50;47.04;102570.94;5029263;28;5305;-64
2022/01/14 02:30:32;;;;;;;;;;;;;;;20.53;46.84;102568.22;5028238;28;4174;-64
2022/01/14 02:32:58;;;;;;;;;;;;;;;20.52;46.99;102567.44;5032453;28;4239;-64
2022/01/14 02:35:25;;;;;;;;;;;;;;;20.47;46.97;102569.25;5032339;28;4188;-64
2022/01/14 02:37:51;;;;;;;;;;;;;;;20.46;46.99;102552.63;5032971;28;4378;-64
2022/01/14 02:40:17;;;;;;;;;;;;;;;20.39;47.24;102551.41;5033715;28;4344;-64
2022/01/14 02:42:47;;;;;;;;;;;;;;;20.49;46.94;102552.13;5031832;28;5255;-64
2022/01/14 02:45:13;;;;;;;;;;;;;;;20.49;47.01;102542.75;5033675;28;4070;-64
2022/01/14 02:47:39;;;;;;;;;;;;;;;20.48;46.91;102550.63;5032322;28;4273;-64
2022/01/14 02:50:08;;;;;;;;;;;;;;;20.45;46.96;102545.34;5032920;28;4014;-64
2022/01/14 02:52:53;;;;;;;;;;;;;;;20.46;46.93;102544.72;5033642;28;4204;-64
2022/01/14 02:55:21;;;;;;;;;;;;;;;20.46;46.98;102535.34;5034200;28;4237;-64
2022/01/14 02:57:48;;;;;;;;;;;;;;;20.48;46.76;102539.13;5034257;28;4206;-64
2022/01/14 03:00:15;;;;;;;;;;;;;;;20.46;46.99;102530.34;5030659;28;4250;-63
2022/01/14 03:02:42;;;;;;;;;;;;;;;20.47;46.95;102531.84;5031915;28;4298;-64
2022/01/14 03:05:09;;;;;;;;;;;;;;;20.42;47.08;102524.28;5034013;28;5581;-64
2022/01/14 03:07:35;;;;;;;;;;;;;;;20.43;47.11;102525.81;5031118;28;4240;-63
2022/01/14 03:10:02;;;;;;;;;;;;;;;20.48;46.78;102521.09;5032011;28;4149;-64
2022/01/14 03:12:29;;;;;;;;;;;;;;;20.48;46.90;102518.22;5034290;28;5188;-64
2022/01/14 03:14:55;;;;;;;;;;;;;;;20.43;47.01;102517.19;5035521;28;4198;-64
2022/01/14 03:17:21;;;;;;;;;;;;;;;20.51;46.82;102528.50;5033080;28;4384;-64
2022/01/14 03:19:48;;;;;;;;;;;;;;;20.44;47.00;102521.56;5031093;28;4314;-64
2022/01/14 03:22:21;;;;;;;;;;;;;;;20.43;47.01;102525.81;5032640;28;4228;-64
2022/01/14 03:27:13;;;;;;;;;;;;;;;20.50;46.88;102524.09;5032318;28;4236;-64
2022/01/14 03:29:40;;;;;;;;;;;;;;;20.50;46.82;102518.34;5034087;28;4278;-64
2022/01/14 03:32:06;;;;;;;;;;;;;;;20.43;47.10;102528.69;5032262;28;5322;-64
2022/01/14 03:34:32;;;;;;;;;;;;;;;20.45;46.95;102522.31;5032780;28;6532;-64
2022/01/14 03:36:59;;;;;;;;;;;;;;;20.49;47.05;102516.84;5028721;28;4131;-64
2022/01/14 03:39:25;;;;;;;;;;;;;;;20.47;46.83;102508.81;5029416;28;4073;-63
2022/01/14 03:41:51;;;;;;;;;;;;;;;20.44;47.01;102503.53;5030894;28;5750;-64
2022/01/14 03:44:18;;;;;;;;;;;;;;;20.44;46.90;102510.06;5035075;28;4173;-64
2022/01/14 03:46:44;;;;;;;;;;;;;;;20.47;46.95;102496.56;5029335;28;5317;-64
2022/01/14 03:49:11;;;;;;;;;;;;;;;20.53;46.90;102494.13;5031646;28;5517;-64
2022/01/14 03:51:37;;;;;;;;;;;;;;;20.51;46.76;102491.84;5028745;28;4238;-64
2022/01/14 03:54:04;;;;;;;;;;;;;;;20.57;46.86;102487.91;5030632;28;4127;-64
2022/01/14 03:56:31;;;;;;;;;;;;;;;20.51;46.96;102486.09;5034955;28;4231;-65
2022/01/14 03:58:57;;;;;;;;;;;;;;;20.46;47.04;102481.41;5032564;28;5260;-64
2022/01/14 04:01:23;;;;;;;;;;;;;;;20.44;47.13;102474.78;5031720;28;5473;-63
2022/01/14 04:03:50;;;;;;;;;;;;;;;20.51;46.88;102474.59;5034917;28;5725;-64
2022/01/14 04:06:16;;;;;;;;;;;;;;;20.46;47.09;102467.03;5033502;28;4223;-64
2022/01/14 04:08:43;;;;;;;;;;;;;;;20.47;47.08;102465.66;5029923;28;4881;-64
2022/01/14 04:11:09;;;;;;;;;;;;;;;20.50;46.89;102461.56;5029441;28;5348;-63
2022/01/14 04:13:54;;;;;;;;;;;;;;;20.54;46.85;102463.22;5030703;28;4199;-63
2022/01/14 04:16:21;;;;;;;;;;;;;;;20.50;47.00;102455.81;5024655;28;5146;-64
2022/01/14 04:18:47;;;;;;;;;;;;;;;20.48;46.81;102457.81;5030014;28;4187;-64
2022/01/14 04:21:13;;;;;;;;;;;;;;;20.49;46.93;102457.16;5030429;28;4171;-64
2022/01/14 04:23:40;;;;;;;;;;;;;;;20.45;47.01;102454.00;5029112;28;4354;-64
2022/01/14 04:26:06;;;;;;;;;;;;;;;20.44;46.96;102443.88;5031828;28;4082;-64
2022/01/14 04:28:34;;;;;;;;;;;;;;;20.43;47.18;102448.13;5031258;28;4311;-64
2022/01/14 04:31:02;;;;;;;;;;;;;;;20.43;47.07;102451.00;5031385;28;5301;-64
2022/01/14 04:33:29;;;;;;;;;;;;;;;20.50;46.93;102452.94;5033972;28;4187;-64
2022/01/14 04:35:56;;;;;;;;;;;;;;;20.48;47.07;102458.56;5030664;28;4184;-63
2022/01/14 04:38:22;;;;;;;;;;;;;;;20.50;46.92;102443.53;5028824;28;4295;-64
2022/01/14 04:40:49;;;;;;;;;;;;;;;20.50;46.90;102450.06;5029422;28;4229;-64
2022/01/14 04:43:18;;;;;;;;;;;;;;;20.51;46.80;102442.19;5031546;28;4246;-64
2022/01/14 04:46:02;;;;;;;;;;;;;;;20.48;47.06;102447.03;5027627;28;4239;-64
2022/01/14 04:48:29;;;;;;;;;;;;;;;20.51;46.96;102439.31;5029613;28;5158;-64
2022/01/14 04:50:55;;;;;;;;;;;;;;;20.44;47.07;102435.22;5030291;28;4182;-64
2022/01/14 04:53:22;;;;;;;;;;;;;;;20.46;47.20;102435.38;5031335;28;4275;-64
2022/01/14 04:55:50;;;;;;;;;;;;;;;20.50;46.98;102438.56;5015460;28;4527;-64
2022/01/14 04:58:17;;;;;;;;;;;;;;;20.51;46.97;102433.53;5031102;28;4237;-64
2022/01/14 05:00:43;;;;;;;;;;;;;;;20.50;46.90;102427.03;5031382;28;4158;-64
2022/01/14 05:03:10;;;;;;;;;;;;;;;20.41;47.23;102429.94;5031332;28;4188;-64
2022/01/14 05:05:40;;;;;;;;;;;;;;;20.45;47.02;102425.22;5021970;28;4239;-64
2022/01/14 05:08:10;;;;;;;;;;;;;;;20.48;47.01;102424.00;5031675;28;5277;-63
2022/01/14 05:10:49;;;;;;;;;;;;;;;20.47;47.24;102410.97;5030745;28;4330;-63
2022/01/14 05:13:15;;;;;;;;;;;;;;;20.50;46.83;102400.38;5031007;28;4235;-64
2022/01/14 05:15:41;;;;;;;;;;;;;;;20.54;46.69;102409.28;5031914;28;5289;-64
2022/01/14 05:18:08;;;;;;;;;;;;;;;20.50;46.99;102415.53;5030869;28;4254;-64
2022/01/14 05:20:34;;;;;;;;;;;;;;;20.46;47.10;102411.59;5025511;28;4172;-64
2022/01/14 05:23:01;;;;;;;;;;;;;;;20.44;47.17;102412.22;5030533;28;4155;-64
2022/01/14 05:25:27;;;;;;;;;;;;;;;20.44;47.16;102412.22;5031941;28;4206;-64
2022/01/14 05:27:53;;;;;;;;;;;;;;;20.42;46.94;102406.31;5028549;28;4304;-64
2022/01/14 05:30:20;;;;;;;;;;;;;;;20.41;47.13;102407.69;5027819;28;4272;-64
2022/01/14 05:32:47;;;;;;;;;;;;;;;20.51;46.96;102422.03;5027968;28;4268;-64
2022/01/14 05:35:18;;;;;;;;;;;;;;;20.47;46.97;102410.97;5029982;28;4144;-64
2022/01/14 05:37:44;;;;;;;;;;;;;;;20.48;46.95;102406.75;5026931;28;4529;-64
2022/01/14 05:40:11;;;;;;;;;;;;;;;20.53;46.98;102407.03;5027973;28;4571;-64
2022/01/14 05:42:37;;;;;;;;;;;;;;;20.24;47.14;102410.75;5024961;28;4260;-65
2022/01/14 05:45:04;;;;;;;;;;;;;;;20.38;47.27;102408.91;5031735;28;4234;-64
2022/01/14 05:47:30;;;;;;;;;;;;;;;20.45;47.19;102405.06;5031296;28;4296;-65
2022/01/14 05:49:57;;;;;;;;;;;;;;;20.42;47.12;102402.69;5032080;28;4105;-65
2022/01/14 05:52:23;;;;;;;;;;;;;;;20.41;47.40;102390.44;5034131;28;4124;-65
2022/01/14 05:54:52;;;;;;;;;;;;;;;20.46;47.42;102394.34;5033261;28;4251;-66
2022/01/14 05:57:18;;;;;;;;;;;;;;;20.49;47.12;102385.22;5033803;28;4222;-65
2022/01/14 05:59:45;;;;;;;;;;;;;;;20.49;47.35;102396.00;5036750;28;4844;-65
2022/01/14 06:02:11;;;;;;;;;;;;;;;20.46;47.38;102395.09;5036570;28;4169;-66
2022/01/14 06:04:38;;;;;;;;;;;;;;;20.50;47.36;102401.13;5035700;28;4110;-66
2022/01/14 06:07:05;;;;;;;;;;;;;;;20.55;47.38;102401.41;5038149;28;4280;-65
2022/01/14 06:09:31;;;;;;;;;;;;;;;20.64;47.61;102404.28;5037807;28;4337;-65
2022/01/14 06:11:58;;;;;;;;;;;;;;;20.58;47.55;102397.34;5035892;28;5512;-63
2022/01/14 06:14:25;;;;;;;;;;;;;;;20.58;47.64;102397.34;5034142;28;4188;-63
2022/01/14 06:16:51;;;;;;;;;;;;;;;20.50;48.27;102404.03;5028860;28;4184;-62
2022/01/14 06:19:17;;;;;;;;;;;;;;;20.54;48.28;102389.16;5037686;28;5618;-62
2022/01/14 06:21:44;;;;;;;;;;;;;;;20.60;48.25;102395.34;5035702;28;4246;-62
2022/01/14 06:24:10;;;;;;;;;;;;;;;20.57;48.37;102392.94;5039383;28;5299;-62
2022/01/14 06:26:36;;;;;;;;;;;;;;;20.59;48.52;102388.09;5038556;28;4186;-63
2022/01/14 06:29:03;;;;;;;;;;;;;;;20.57;48.51;102398.69;5038430;28;4237;-62
2022/01/14 06:31:29;;;;;;;;;;;;;;;20.53;48.68;102389.78;5028885;28;4246;-62
2022/01/14 06:33:55;;;;;;;;;;;;;;;20.48;48.87;102406.00;5033284;28;4205;-62
2022/01/14 06:36:22;;;;;;;;;;;;;;;20.50;48.62;102406.91;5036214;28;4216;-62
2022/01/14 06:38:48;;;;;;;;;;;;;;;20.53;48.38;102401.28;5036639;28;5328;-61
2022/01/14 06:41:14;;;;;;;;;;;;;;;20.56;48.60;102397.16;5037481;28;5400;-62
2022/01/14 06:43:41;;;;;;;;;;;;;;;20.48;48.80;102406.75;5034823;28;5225;-62
2022/01/14 06:46:07;;;;;;;;;;;;;;;20.55;48.76;102404.28;5037926;28;4201;-63
2022/01/14 06:48:34;;;;;;;;;;;;;;;20.51;48.96;102413.41;5037131;28;4174;-62
2022/01/14 06:51:26;;;;;;;;;;;;;;;20.10;48.98;102419.13;5035500;28;4221;-62
2022/01/14 06:53:53;;;;;;;;;;;;;;;20.33;49.05;102423.63;5022640;28;6439;-62
2022/01/14 06:56:19;;;;;;;;;;;;;;;20.40;49.43;102416.91;5036809;28;4192;-61
2022/01/14 06:58:45;;;;;;;;;;;;;;;20.51;49.25;102419.91;5038232;28;5600;-62
2022/01/14 07:01:12;;;;;;;;;;;;;;;20.50;49.05;102427.03;5038135;28;5656;-62
2022/01/14 07:03:39;;;;;;;;;;;;;;;20.47;49.53;102422.50;5037048;28;4620;-62
2022/01/14 07:06:05;;;;;;;;;;;;;;;20.52;49.28;102432.16;5037814;28;5328;-61
2022/01/14 07:08:31;;;;;;;;;;;;;;;20.54;49.23;102425.81;5037178;28;4582;-62
2022/01/14 07:10:58;;;;;;;;;;;;;;;20.54;48.99;102425.81;5038187;28;5300;-61
2022/01/14 07:13:24;;;;;;;;;;;;;;;20.56;48.98;102429.59;5037489;28;6572;-62
2022/01/14 07:15:50;;;;;;;;;;;;;;;20.50;48.98;102426.25;5037540;28;5431;-62
2022/01/14 07:18:17;;;;;;;;;;;;;;;20.54;48.88;102432.31;5038272;28;4151;-62
2022/01/14 07:20:43;;;;;;;;;;;;;;;20.60;49.19;102432.03;5038325;28;5598;-64
2022/01/14 07:23:09;;;;;;;;;;;;;;;20.27;49.60;102426.78;5039111;28;3991;-62
2022/01/14 07:25:38;;;;;;;;;;;;;;;20.41;49.34;102430.72;5037443;28;5589;-62
2022/01/14 07:28:05;;;;;;;;;;;;;;;20.44;49.59;102428.72;5035750;28;5613;-61
2022/01/14 07:30:31;;;;;;;;;;;;;;;20.48;49.40;102426.91;5036681;28;5471;-63
2022/01/14 07:32:58;;;;;;;;;;;;;;;20.56;49.09;102429.59;5036196;28;4321;-61
2022/01/14 07:35:24;;;;;;;;;;;;;;;20.50;49.23;102424.16;5033244;28;5988;-61
2022/01/14 07:37:51;;;;;;;;;;;;;;;20.44;49.51;102420.09;5035366;28;5460;-61
2022/01/14 07:40:17;;;;;;;;;;;;;;;20.45;49.37;102418.72;5037539;28;4437;-61
2022/01/14 07:42:43;;;;;;;;;;;;;;;20.50;49.26;102424.16;5036444;28;5471;-61
2022/01/14 07:45:10;;;;;;;;;;;;;;;20.50;49.29;102409.78;5037403;28;4284;-61
2022/01/14 07:47:36;;;;;;;;;;;;;;;20.51;49.06;102410.53;5037301;28;4287;-61
2022/01/14 07:50:03;;;;;;;;;;;;;;;20.47;49.32;102415.97;5038100;28;5230;-61
2022/01/14 07:52:29;;;;;;;;;;;;;;;20.45;49.33;102416.59;5038031;28;5119;-61
2022/01/14 07:54:55;;;;;;;;;;;;;;;20.47;49.12;102393.72;5037547;28;4533;-61
2022/01/14 07:57:22;;;;;;;;;;;;;;;20.49;49.49;102396.72;5037636;28;4246;-61
2022/01/14 07:59:48;;;;;;;;;;;;;;;20.48;49.27;102401.00;5038586;28;4588;-61
2022/01/14 08:02:14;;;;;;;;;;;;;;;20.53;49.40;102395.53;5036580;28;4263;-61
2022/01/14 08:04:41;;;;;;;;;;;;;;;20.46;49.43;102395.09;5036445;28;4549;-61
2022/01/14 08:07:11;;;;;;;;;;;;;;;20.45;49.51;102399.31;5038064;28;4047;-61
2022/01/14 08:09:38;;;;;;;;;;;;;;;20.59;48.98;102393.09;5036207;28;4217;-61
2022/01/14 08:12:05;;;;;;;;;;;;;;;20.47;49.09;102393.72;5038550;28;4266;-61
2022/01/14 08:14:32;;;;;;;;;;;;;;;20.50;49.17;102404.03;5037523;28;4222;-61
2022/01/14 08:16:58;;;;;;;;;;;;;;;20.55;49.01;102401.41;5036644;28;4223;-61
2022/01/14 08:19:24;;;;;;;;;;;;;;;20.46;48.68;102395.09;5037056;28;4710;-61
2022/01/14 08:21:51;;;;;;;;;;;;;;;20.48;49.24;102398.13;5037227;28;5409;-61
2022/01/14 08:24:17;;;;;;;;;;;;;;;20.43;49.52;102390.56;5036730;28;4150;-61
2022/01/14 08:26:43;;;;;;;;;;;;;;;20.50;49.09;102398.25;5035383;28;4739;-61
2022/01/14 08:29:10;;;;;;;;;;;;;;;20.47;49.33;102392.97;5037156;28;5677;-60
2022/01/14 08:31:36;;;;;;;;;;;;;;;20.51;49.31;102396.88;5036274;28;5500;-63
2022/01/14 08:34:02;;;;;;;;;;;;;;;20.48;49.43;102395.25;5035237;28;5299;-63
2022/01/14 08:36:30;;;;;;;;;;;;;;;19.84;47.75;102397.84;5035015;28;5327;-62
2022/01/14 08:38:57;;;;;;;;;;;;;;;19.43;46.76;102383.34;5035103;28;5203;-61
2022/01/14 08:41:28;;;;;;;;;;;;;;;19.90;48.77;102389.66;5037293;28;5664;-61
2022/01/14 08:43:56;;;;;;;;;;;;;;;20.17;48.68;102383.69;5011745;28;5506;-63
2022/01/14 08:46:43;;;;;;;;;;;;;;;20.27;48.40;102403.78;5031558;28;4261;-67
2022/01/14 08:49:09;;;;;;;;;;;;;;;20.21;48.25;102383.97;5036511;28;5599;-62
2022/01/14 08:51:36;;;;;;;;;;;;;;;20.30;48.03;102391.81;5034563;28;4087;-62
2022/01/14 08:54:03;;;;;;;;;;;;;;;20.33;48.08;102389.84;5035013;28;4101;-62
2022/01/14 08:56:32;;;;;;;;;;;;;;;20.50;47.81;102391.72;5034882;28;5455;-62
2022/01/14 08:58:58;;;;;;;;;;;;;;;20.44;47.89;102394.19;5035774;28;5468;-61
2022/01/14 09:01:25;;;;;;;;;;;;;;;20.49;48.00;102379.47;5035943;28;4500;-61
2022/01/14 09:03:51;;;;;;;;;;;;;;;20.50;48.03;102389.63;5036765;28;4392;-62
2022/01/14 09:06:17;;;;;;;;;;;;;;;20.43;48.24;102387.69;5036782;28;4229;-62
2022/01/14 09:08:44;;;;;;;;;;;;;;;20.48;48.18;102401.00;5036189;28;6082;-62
2022/01/14 09:11:10;;;;;;;;;;;;;;;20.47;48.37;102398.72;5035506;28;4522;-62
2022/01/14 09:13:36;;;;;;;;;;;;;;;20.44;48.12;102394.19;5035306;28;4100;-62
2022/01/14 09:16:03;;;;;;;;;;;;;;;20.49;48.30;102396.72;5035754;28;4193;-61
2022/01/14 09:18:29;;;;;;;;;;;;;;;20.48;48.34;102389.47;5034698;28;4134;-64
2022/01/14 09:20:58;;;;;;;;;;;;;;;20.54;48.28;102385.50;5034146;28;4177;-61
2022/01/14 09:23:25;;;;;;;;;;;;;;;20.44;48.52;102382.69;5036158;28;3983;-62
2022/01/14 09:25:52;;;;;;;;;;;;;;;20.41;48.22;102390.44;5036012;28;5578;-64
2022/01/14 09:28:18;;;;;;;;;;;;;;;20.54;48.36;102380.50;5038703;28;4652;-62
2022/01/14 09:30:44;;;;;;;;;;;;;;;20.56;48.24;102379.91;5039825;28;4625;-61
2022/01/14 09:33:11;;;;;;;;;;;;;;;20.46;48.47;102374.94;5040814;28;4188;-61
2022/01/14 09:35:40;;;;;;;;;;;;;;;20.58;48.39;102385.84;5039773;28;4307;-65
2022/01/14 09:38:06;;;;;;;;;;;;;;;20.49;48.34;102384.47;5039694;28;5655;-63
2022/01/14 09:40:32;;;;;;;;;;;;;;;20.40;48.44;102380.25;5030324;28;4205;-65
2022/01/14 09:43:01;;;;;;;;;;;;;;;20.26;48.87;102379.28;5035992;28;4211;-71
2022/01/14 09:45:50;;;;;;;;;;;;;;;18.93;48.28;102389.63;5037871;28;4500;-70
2022/01/14 09:48:16;;;;;;;;;;;;;;;19.45;48.62;102380.63;5036175;28;4088;-64
2022/01/14 09:50:43;;;;;;;;;;;;;;;19.83;45.57;102379.09;5040054;28;5224;-65
2022/01/14 09:53:13;;;;;;;;;;;;;;;20.06;46.53;102367.06;5039653;28;5252;-64
2022/01/14 09:55:39;;;;;;;;;;;;;;;20.08;47.37;102376.59;5039755;28;5438;-64
2022/01/14 09:58:05;;;;;;;;;;;;;;;20.23;47.11;102369.00;5037117;28;4234;-64
2022/01/14 10:00:32;;;;;;;;;;;;;;;20.25;47.35;102377.78;5039460;28;4478;-64
2022/01/14 10:02:58;;;;;;;;;;;;;;;20.42;47.12;102376.78;5039254;28;4246;-63
2022/01/14 10:05:32;;;;;;;;;;;;;;;20.38;47.16;102373.63;5038168;28;4369;-63
2022/01/14 10:08:08;;;;;;;;;;;;;;;20.41;47.14;102376.03;5029674;28;4204;-63
2022/01/14 10:10:37;;;;;;;;;;;;;;;20.50;47.00;102381.00;5038186;28;5249;-63
2022/01/14 10:13:10;;;;;;;;;;;;;;;20.56;46.85;102354.00;5035841;28;4168;-64
2022/01/14 10:15:47;;;;;;;;;;;;;;;20.55;46.78;102356.13;5038600;28;4147;-64
2022/01/14 10:18:14;;;;;;;;;;;;;;;20.51;46.93;102345.09;5036233;28;4408;-63
2022/01/14 10:20:40;;;;;;;;;;;;;;;20.45;46.94;102338.16;5036756;28;5392;-63
2022/01/14 10:23:07;;;;;;;;;;;;;;;20.52;47.01;102365.97;5036072;28;4147;-63
2022/01/14 10:25:33;;;;;;;;;;;;;;;20.42;46.78;102351.63;5035597;28;4264;-64
2022/01/14 10:27:59;;;;;;;;;;;;;;;20.37;46.71;102367.13;5036746;28;5493;-63
2022/01/14 10:30:28;;;;;;;;;;;;;;;20.39;46.94;102372.28;5038376;28;4230;-63
2022/01/14 10:33:05;;;;;;;;;;;;;;;20.49;46.64;102379.47;5036312;28;5392;-63
2022/01/14 10:35:41;;;;;;;;;;;;;;;20.46;46.64;102392.22;5034241;28;4253;-64
2022/01/14 10:38:07;;;;;;;;;;;;;;;20.43;46.59;102386.91;5035454;28;4235;-63
2022/01/14 10:40:35;;;;;;;;;;;;;;;20.40;46.69;102377.38;5035623;28;4185;-63
2022/01/14 10:43:02;;;;;;;;;;;;;;;20.48;46.53;102377.97;5036578;28;4177;-63
2022/01/14 10:45:49;;;;;;;;;;;;;;;14.73;51.59;102391.25;5021158;28;5448;-66
2022/01/14 10:48:32;;;;;;;;;;;;;;;15.98;53.34;102385.44;5036698;28;4094;-67
2022/01/14 10:50:59;;;;;;;;;;;;;;;14.90;54.43;102377.19;5036119;28;4184;-67
2022/01/14 10:53:26;;;;;;;;;;;;;;;16.69;53.17;102379.44;5038434;28;4194;-64
2022/01/14 10:55:53;;;;;;;;;;;;;;;16.89;57.19;102381.19;5035316;28;4559;-68
2022/01/14 10:58:23;;;;;;;;;;;;;;;17.05;65.11;102364.63;5033347;28;3986;-62
2022/01/14 11:00:50;;;;;;;;;;;;;;;17.75;58.79;102367.44;5037139;28;4665;-62
2022/01/14 11:03:30;;;;;;;;;;;;;;;18.82;50.83;102368.00;5036543;28;5223;-62
2022/01/14 11:06:13;;;;;;;;;;;;;;;19.59;48.53;102352.94;5037400;28;4265;-59
2022/01/14 11:08:40;;;;;;;;;;;;;;;19.75;48.70;102355.50;5032706;28;4229;-61
2022/01/14 11:11:06;;;;;;;;;;;;;;;19.78;48.13;102365.78;5037252;28;4199;-63
2022/01/14 11:13:32;;;;;;;;;;;;;;;19.82;48.05;102369.72;5019671;28;4114;-64
2022/01/14 11:15:59;;;;;;;;;;;;;;;19.74;48.01;102371.22;5024503;28;4061;-66
2022/01/14 11:18:25;;;;;;;;;;;;;;;19.44;46.02;102350.38;5035375;28;4233;-65
2022/01/14 11:23:47;;;;;;;;;;;;;;;19.97;46.60;102351.34;5006623;28;4272;-65
2022/01/14 11:26:15;;;;;;;;;;;;;;;19.99;46.46;102348.63;5034445;28;4259;-66
2022/01/14 11:28:42;;;;;;;;;;;;;;;20.15;46.06;102356.91;5010749;28;4268;-65
2022/01/14 11:31:27;;;;;;;;;;;;;;;20.06;46.15;102349.81;5033596;28;4385;-66
2022/01/14 11:33:54;;;;;;;;;;;;;;;20.13;46.23;102348.13;5033264;28;4272;-66
2022/01/14 11:36:21;;;;;;;;;;;;;;;20.24;46.06;102339.59;5033263;28;4245;-66
2022/01/14 11:38:47;;;;;;;;;;;;;;;20.14;46.41;102323.78;5014147;28;5381;-66
2022/01/14 11:41:16;;;;;;;;;;;;;;;20.25;46.22;102331.75;5029101;28;4340;-66
2022/01/14 11:43:47;;;;;;;;;;;;;;;20.16;46.24;102324.66;5030660;28;4397;-65
2022/01/14 11:46:16;;;;;;;;;;;;;;;20.23;46.18;102329.47;5031235;28;4232;-65
2022/01/14 11:48:47;;;;;;;;;;;;;;;20.26;46.33;102318.84;5030173;28;5270;-65
2022/01/14 11:51:15;;;;;;;;;;;;;;;20.15;46.36;102308.00;5032610;28;4559;-66
2022/01/14 11:53:41;;;;;;;;;;;;;;;20.25;46.16;102302.97;5028719;28;4314;-64
2022/01/14 11:56:28;;;;;;;;;;;;;;;20.26;46.09;102305.22;5030603;28;4176;-65
2022/01/14 11:58:54;;;;;;;;;;;;;;;20.23;46.18;102317.22;5025860;28;5290;-67
2022/01/14 12:01:33;;;;;;;;;;;;;;;20.25;46.46;102320.25;5019230;28;4675;-66
2022/01/14 12:04:01;;;;;;;;;;;;;;;20.23;46.06;102308.59;5020197;28;4662;-66
2022/01/14 12:06:48;;;;;;;;;;;;;;;20.23;46.51;102305.72;5037001;28;4142;-66
2022/01/14 12:09:14;;;;;;;;;;;;;;;20.35;46.19;102283.53;5036129;28;5158;-67
2022/01/14 12:11:40;;;;;;;;;;;;;;;20.28;46.32;102278.72;5035728;28;5598;-66
2022/01/14 12:14:07;;;;;;;;;;;;;;;20.30;46.54;102304.75;5032991;28;4599;-67
2022/01/14 12:17:00;;;;;;;;;;;;;;;20.39;46.28;102306.84;5035524;28;5535;-66
2022/01/14 12:19:27;;;;;;;;;;;;;;;20.37;46.28;102303.81;5036104;28;3999;-67
2022/01/14 12:21:54;;;;;;;;;;;;;;;20.34;46.28;102305.06;5036633;28;4154;-66
2022/01/14 12:24:30;;;;;;;;;;;;;;;20.45;46.18;102304.38;5035859;28;4192;-67
2022/01/14 12:26:57;;;;;;;;;;;;;;;20.32;46.64;102293.41;5035240;28;5299;-67
2022/01/14 12:29:36;;;;;;;;;;;;;;;20.39;46.62;102294.59;5035442;28;4527;-66
2022/01/14 12:32:03;;;;;;;;;;;;;;;20.40;46.48;102287.44;5035873;28;4088;-67
2022/01/14 12:34:29;;;;;;;;;;;;;;;20.39;46.37;102288.81;5036226;28;4941;-66
2022/01/14 12:36:56;;;;;;;;;;;;;;;20.43;46.44;102289.88;5035181;28;4564;-66
2022/01/14 12:39:22;;;;;;;;;;;;;;;20.37;46.79;102286.56;5034745;28;4288;-65
2022/01/14 12:41:52;;;;;;;;;;;;;;;20.36;46.97;102295.78;5027966;28;4573;-66
2022/01/14 12:44:18;;;;;;;;;;;;;;;20.35;46.76;102294.28;5014752;28;4600;-66
2022/01/14 12:49:15;;;;;;;;;;;;;;;20.31;46.81;102289.00;5014826;28;4423;-66
2022/01/14 12:51:41;;;;;;;;;;;;;;;20.30;46.68;102278.88;5014719;28;5550;-64
2022/01/14 12:54:08;;;;;;;;;;;;;;;20.38;46.67;102288.06;5013998;28;4240;-67
2022/01/14 12:56:36;;;;;;;;;;;;;;;20.38;46.80;102296.69;5014588;28;5639;-65
2022/01/14 12:59:05;;;;;;;;;;;;;;;20.33;46.74;102286.25;5014656;28;5614;-65
2022/01/14 13:01:33;;;;;;;;;;;;;;;20.36;46.86;102290.78;5015152;28;5525;-66
2022/01/14 13:04:01;;;;;;;;;;;;;;;20.43;46.75;102289.88;5015651;28;5503;-66
2022/01/14 13:06:27;;;;;;;;;;;;;;;20.36;46.88;102284.28;5015505;28;4242;-65
2022/01/14 13:08:54;;;;;;;;;;;;;;;20.40;46.74;102296.81;5014892;28;5672;-65
2022/01/14 13:11:20;;;;;;;;;;;;;;;20.31;46.81;102294.75;5015988;28;5491;-67
2022/01/14 13:13:57;;;;;;;;;;;;;;;20.38;46.78;102299.56;5015293;28;5648;-65
2022/01/14 13:16:23;;;;;;;;;;;;;;;20.39;46.66;102311.84;5014187;28;4657;-66